Flight Track Log - Related Links

Times and Time Zones

All times are in EDT time to prevent confusion due to time zone crossing. See the SWA268 flight status page for this flight to view local times or setup timezone preferences in your user account.

Time Position Orientation Groundspeed Altitude Reporting Facility
EDT Latitude Longitude Course Direction KTS MPH feet Rate Location/Type
Sun 06:53:45 PM 26.0750 -80.1389 83° East 162 186 600  Level Miami Center
Sun 06:54:40 PM 26.0803 -80.0883 83° East 196 226 2,100 2,016 Climbing Miami Center
Sun 06:55:53 PM 26.1372 -80.0550 28° Northeast 261 300 4,900 1,388 Climbing Miami Center
Sun 06:56:54 PM 26.1922 -80.1236 312° West 279 321 5,200 1,655 Climbing Miami Center
Sun 06:57:49 PM 26.2411 -80.1761 316° Northwest 276 318 8,100 2,698 Climbing Miami Center
Sun 06:59:03 PM 26.3106 -80.2519 316° Northwest 286 329 11,000 1,299 Climbing Miami Center
Sun 07:00:03 PM 26.3672 -80.3186 313° West 315 362 11,000 1,350 Level Miami Center
Sun 07:01:03 PM 26.4406 -80.4019 315° West 333 383 13,700 2,850 Climbing Miami Center
Sun 07:02:03 PM 26.4928 -80.4869 304° West 354 407 16,700 3,350 Climbing Miami Center
Sun 07:03:03 PM 26.5547 -80.5911 304° West 363 418 20,400 2,650 Climbing Miami Center
Sun 07:04:03 PM 26.6028 -80.6717 304° West 363 418 22,000 800 Climbing Miami Center
Sun 07:05:03 PM 26.6672 -80.7689 307° West 358 412 22,000  Level Miami Center
Sun 07:06:15 PM 26.7489 -80.8369 323° Northwest 353 406 22,000  Level Miami Center
Sun 07:07:15 PM 26.8447 -80.9122 325° Northwest 372 428 22,000  Level Miami Center
Sun 07:08:15 PM 26.9353 -80.9667 332° Northwest 377 434 22,000  Level Miami Center
Sun 07:09:15 PM 27.0275 -81.0236 331° Northwest 372 428 22,000  Level Miami Center
Sun 07:10:15 PM 27.1047 -81.0986 319° Northwest 372 428 22,000  Level Miami Center
Sun 07:11:15 PM 27.1817 -81.1761 318° Northwest 367 422 22,000  Level Miami Center
Sun 07:12:15 PM 27.2247 -81.2758 296° West 358 412 22,000 -450 Level Miami Center
Sun 07:13:15 PM 27.2547 -81.3797 288° West 353 406 21,100 -1,000 Descending Miami Center
Sun 07:14:15 PM 27.2847 -81.4906 287° West 348 400 20,000 -900 Descending Miami Center
Sun 07:15:15 PM 27.3128 -81.5947 287° West 348 400 19,300 -950 Descending Miami Center
Sun 07:16:15 PM 27.3383 -81.6983 286° West 343 395 18,100 -1,450 Descending Miami Center
Sun 07:17:15 PM 27.3642 -81.8025 286° West 343 395 16,400 -1,700 Descending Miami Center
Sun 07:18:15 PM 27.3919 -81.9017 288° West 343 395 14,700 -1,700 Descending Miami Center
Sun 07:19:15 PM 27.4156 -82.0011 285° West 343 395 13,000 -1,650 Descending Miami Center
Sun 07:20:15 PM 27.4414 -82.0958 287° West 332 382 11,400 -1,050 Descending Miami Center
Sun 07:21:15 PM 27.4825 -82.1725 301° West 309 356 10,900 -250 Descending Miami Center
Sun 07:22:15 PM 27.5264 -82.2261 313° West 293 337 10,900 -800 Level Miami Center
Sun 07:23:15 PM 27.5903 -82.3017 314° West 282 325 9,300 -1,400 Descending Miami Center
Sun 07:24:15 PM 27.6442 -82.3697 312° West 282 325 8,100 -1,103 Descending Miami Center
Sun 07:24:42 PM 27.6667 -82.4000 310° West 272 313 7,700 -1,548 Descending Tampa TRACON
Sun 07:25:48 PM 27.7333 -82.4667 318° Northwest 264 304 5,700 -1,300 Descending Tampa TRACON
Sun 07:26:42 PM 27.7667 -82.5167 307° West 237 273 5,100 -895 Descending Tampa TRACON
Sun 07:27:42 PM 27.8000 -82.5500 319° Northwest 194 223 4,000 -1,200 Descending Tampa TRACON
Sun 07:28:42 PM 27.8500 -82.5500 360° North 169 194 2,700 -1,286 Descending Tampa TRACON
Sun 07:29:48 PM 27.9000 -82.5500 360° North 142 163 1,300 -1,000 Descending Tampa TRACON
Sun 07:30:48 PM 27.9333 -82.5500 360° North 133 153 600 -700 Descending Tampa TRACON
Sun 07:32:00 PM 27.9755 -82.5332 69° East  Level Estimated
Sun 07:39:00 PM 27.9755 -82.5332 190° South  Level Estimated
Sun 07:40:00 PM 27.9755 -82.5332 190° South  Level Estimated

Login

Don't have an account? Register now (free) for customized features, flight alerts, and more!